Time;durP1;ratioP1;P1;durP2;ratioP2;P2;SDS_P1;SDS_P2;PMS_P1;PMS_P2;Temp;Humidity;BMP_temperature;BMP_pressure;BME280_temperature;BME280_humidity;BME280_pressure;Samples;Min_cycle;Max_cycle;Signal;HPM_P1;HPM_P2
2021/04/05 00:01:59;;;;;;;0.50;0.50;;;12.70;99.90;;;;;;20809466;28;20202;-72
2021/04/05 00:12:02;;;;;;;1.13;1.03;;;13.20;99.90;;;;;;20730704;28;20333;-70
2021/04/05 00:22:05;;;;;;;1.10;1.07;;;13.20;99.90;;;;;;20726338;28;20748;-72
2021/04/05 00:32:09;;;;;;;1.00;0.97;;;13.10;99.90;;;;;;20725798;28;20241;-73
2021/04/05 00:42:12;;;;;;;1.13;0.70;;;13.10;99.90;;;;;;20726042;28;20259;-71
2021/04/05 00:52:16;;;;;;;1.07;0.70;;;13.10;99.90;;;;;;20737914;28;20240;-73
2021/04/05 01:02:18;;;;;;;0.90;0.70;;;13.30;99.90;;;;;;20759585;23;20325;-79
2021/04/05 01:12:22;;;;;;;0.93;0.83;;;13.20;99.90;;;;;;20724505;28;20253;-77
2021/04/05 01:22:27;;;;;;;0.57;0.47;;;13.00;99.90;;;;;;20777423;28;20198;-79
2021/04/05 01:32:30;;;;;;;12.87;1.03;;;13.00;99.90;;;;;;20790206;28;20263;-82
2021/04/05 01:42:33;;;;;;;0.80;0.80;;;13.30;99.90;;;;;;20818772;28;20277;-81
2021/04/05 01:52:40;;;;;;;0.60;0.50;;;13.60;99.90;;;;;;20823093;28;20222;-80
2021/04/05 02:02:43;;;;;;;2.30;1.70;;;13.50;99.90;;;;;;20805387;23;20231;-73
2021/04/05 02:12:46;;;;;;;3.23;1.20;;;13.60;99.90;;;;;;20721303;28;20330;-73
2021/04/05 02:22:53;;;;;;;3.50;1.43;;;13.50;99.90;;;;;;20739033;28;20195;-73
2021/04/05 02:32:59;;;;;;;3.43;1.37;;;13.40;99.90;;;;;;20719100;28;20325;-74
2021/04/05 02:43:03;;;;;;;7.10;0.90;;;13.20;99.90;;;;;;20661250;28;20192;-73
2021/04/05 02:53:08;;;;;;;1.20;1.10;;;13.00;99.90;;;;;;20666182;28;20253;-74
2021/04/05 03:03:12;;;;;;;1.07;0.80;;;12.90;99.90;;;;;;20718392;28;20227;-75
2021/04/05 03:13:16;;;;;;;0.83;0.83;;;13.20;99.90;;;;;;20733649;28;20707;-75
2021/04/05 03:23:22;;;;;;;0.70;0.70;;;13.30;99.90;;;;;;20734231;28;20227;-73
2021/04/05 03:33:29;;;;;;;0.50;0.23;;;13.40;99.90;;;;;;20733385;28;20848;-73
2021/04/05 03:43:39;;;;;;;15.57;1.77;;;13.50;99.90;;;;;;20778499;28;20604;-71
2021/04/05 03:53:49;;;;;;;2.20;0.87;;;13.40;99.90;;;;;;20737248;28;20312;-73
2021/04/05 04:04:00;;;;;;;0.83;0.47;;;13.10;99.90;;;;;;20733492;28;20313;-74
2021/04/05 04:14:06;;;;;;;1.60;0.70;;;13.40;99.90;;;;;;20727987;28;20288;-73
2021/04/05 04:24:10;;;;;;;1.73;0.67;;;13.50;99.90;;;;;;20736694;28;20289;-74
2021/04/05 04:34:15;;;;;;;0.47;0.40;;;13.80;99.90;;;;;;20746904;28;20230;-74
2021/04/05 04:44:18;;;;;;;0.57;0.57;;;13.80;99.90;;;;;;20815295;28;20196;-74
2021/04/05 04:54:21;;;;;;;0.63;0.63;;;13.70;99.90;;;;;;20810137;28;20572;-72
2021/04/05 05:04:26;;;;;;;2.73;0.67;;;13.40;99.90;;;;;;20826494;28;20694;-73
2021/04/05 05:14:29;;;;;;;0.47;0.47;;;13.20;99.90;;;;;;20825238;28;20228;-74
2021/04/05 05:24:33;;;;;;;0.87;0.87;;;13.00;99.90;;;;;;20772411;28;20210;-72
2021/04/05 05:34:36;;;;;;;2.10;0.90;;;13.00;99.90;;;;;;20740984;28;20226;-72
2021/04/05 05:44:51;;;;;;;0.80;0.73;;;12.70;99.90;;;;;;20670052;28;20664;-74
2021/04/05 05:55:27;;;;;;;0.27;0.27;;;12.30;99.90;;;;;;20659369;28;20289;-73
2021/04/05 06:05:42;;;;;;;1.60;0.50;;;12.10;99.90;;;;;;20658126;28;20575;-73
2021/04/05 06:15:52;;;;;;;0.50;0.37;;;11.90;99.90;;;;;;20657344;28;20621;-74
2021/04/05 06:26:09;;;;;;;0.50;0.50;;;11.90;99.90;;;;;;20657026;28;20234;-74
2021/04/05 06:36:20;;;;;;;0.80;0.80;;;12.40;99.90;;;;;;20658039;28;20233;-74
2021/04/05 06:46:31;;;;;;;1.97;1.27;;;12.90;99.90;;;;;;20735836;28;20233;-70
2021/04/05 06:56:52;;;;;;;9.47;3.40;;;13.40;99.90;;;;;;20735598;28;20314;-74
2021/04/05 07:07:10;;;;;;;2.37;2.17;;;13.80;99.90;;;;;;20796756;28;20311;-73
2021/04/05 07:17:20;;;;;;;2.33;2.13;;;14.20;99.90;;;;;;20815584;28;20226;-73
2021/04/05 07:27:33;;;;;;;3.20;0.67;;;14.70;99.90;;;;;;20814890;28;20194;-72
2021/04/05 07:37:49;;;;;;;9.60;1.70;;;15.20;99.90;;;;;;20719021;28;20321;-70
2021/04/05 07:48:06;;;;;;;0.67;0.67;;;15.30;99.90;;;;;;20706298;28;20833;-70
2021/04/05 07:58:15;;;;;;;0.83;0.60;;;15.20;99.90;;;;;;20735891;28;20230;-73
2021/04/05 08:08:45;;;;;;;4.30;1.07;;;15.20;99.90;;;;;;20748145;28;20222;-72
2021/04/05 08:18:56;;;;;;;0.67;0.67;;;15.40;99.90;;;;;;20720121;28;20268;-71
2021/04/05 08:29:08;;;;;;;1.50;1.00;;;15.60;99.90;;;;;;20745052;28;20202;-71
2021/04/05 08:39:15;;;;;;;1.57;1.47;;;15.80;99.90;;;;;;20715554;28;20229;-69
2021/04/05 08:49:27;;;;;;;1.60;0.97;;;16.00;99.90;;;;;;20753553;28;20230;-72
2021/04/05 08:59:38;;;;;;;3.03;0.97;;;16.00;99.90;;;;;;20764309;28;20694;-73
2021/04/05 09:09:44;;;;;;;0.80;0.80;;;16.30;99.90;;;;;;20741506;28;20203;-73
2021/04/05 09:20:14;;;;;;;0.53;0.37;;;16.70;99.90;;;;;;20743231;28;20222;-74
2021/04/05 09:31:02;;;;;;;1.43;0.97;;;16.90;99.90;;;;;;20754127;28;20237;-73
2021/04/05 09:41:17;;;;;;;1.47;1.13;;;17.20;99.90;;;;;;20736810;28;20222;-73
2021/04/05 09:52:04;;;;;;;0.93;0.93;;;16.90;99.90;;;;;;20742197;28;20312;-71
2021/04/05 10:02:11;;;;;;;1.17;1.07;;;17.30;99.90;;;;;;20761748;28;20308;-71
2021/04/05 10:12:16;;;;;;;2.00;1.40;;;17.60;99.90;;;;;;20818604;28;20248;-71
2021/04/05 10:22:41;;;;;;;2.83;1.87;;;18.00;99.90;;;;;;20817767;28;20566;-72
2021/04/05 10:32:44;;;;;;;1.87;1.70;;;17.90;99.90;;;;;;20817431;28;20245;-72
2021/04/05 10:42:50;;;;;;;6.63;1.60;;;18.60;99.90;;;;;;20816480;28;20274;-70
2021/04/05 10:52:55;;;;;;;0.50;0.50;;;18.30;99.90;;;;;;20815584;28;20226;-70
2021/04/05 11:03:06;;;;;;;1.43;0.83;;;18.60;99.90;;;;;;20814191;28;20710;-72
2021/04/05 11:13:12;;;;;;;3.93;1.50;;;19.00;99.90;;;;;;20814505;28;20217;-73
2021/04/05 11:23:17;;;;;;;2.13;1.20;;;19.00;99.90;;;;;;20815068;28;20294;-71
2021/04/05 11:33:26;;;;;;;1.23;0.60;;;19.80;99.90;;;;;;20813066;28;20310;-70
2021/04/05 11:43:34;;;;;;;2.47;1.97;;;19.30;99.90;;;;;;20812197;28;20289;-70
2021/04/05 11:53:43;;;;;;;5.83;1.30;;;19.50;99.90;;;;;;20807485;28;20243;-71
2021/04/05 12:03:54;;;;;;;2.60;1.27;;;20.30;99.90;;;;;;20812310;28;20280;-70
2021/04/05 12:14:06;;;;;;;5.10;1.43;;;21.30;99.90;;;;;;20812581;28;20283;-69
2021/04/05 12:24:11;;;;;;;1.47;1.13;;;20.80;99.90;;;;;;20795351;28;20230;-70
2021/04/05 12:34:15;;;;;;;2.40;0.87;;;22.20;99.90;;;;;;20812298;28;20253;-74
2021/04/05 12:44:25;;;;;;;5.07;1.47;;;22.50;99.90;;;;;;20816218;28;20263;-69
2021/04/05 12:54:30;;;;;;;2.27;2.07;;;21.40;99.90;;;;;;20809285;28;20268;-72
2021/04/05 13:04:36;;;;;;;2.47;1.60;;;22.20;99.90;;;;;;20826001;28;20218;-71
2021/04/05 13:14:48;;;;;;;0.43;0.43;;;22.50;99.90;;;;;;20825400;28;20246;-69
2021/04/05 13:25:05;;;;;;;2.17;1.60;;;21.50;99.90;;;;;;20824733;28;20265;-69
2021/04/05 13:35:11;;;;;;;0.57;0.57;;;21.30;99.90;;;;;;20744092;28;20253;-69
2021/04/05 13:45:20;;;;;;;0.87;0.67;;;21.00;99.90;;;;;;20812475;28;20198;-71
2021/04/05 13:55:30;;;;;;;0.83;0.77;;;22.30;99.90;;;;;;20818223;28;20317;-70
2021/04/05 14:05:36;;;;;;;9.00;1.03;;;21.30;99.90;;;;;;20816780;28;20690;-70
2021/04/05 14:15:39;;;;;;;2.57;1.13;;;22.00;99.90;;;;;;20799511;28;20694;-70
2021/04/05 14:25:50;;;;;;;0.83;0.63;;;22.40;99.90;;;;;;20816580;28;20362;-69
2021/04/05 14:35:58;;;;;;;2.00;0.83;;;21.90;99.90;;;;;;20815169;28;20260;-69
2021/04/05 14:46:05;;;;;;;2.40;1.03;;;21.80;99.90;;;;;;20736827;28;20338;-71
2021/04/05 14:56:12;;;;;;;1.30;0.83;;;22.00;99.90;;;;;;20731201;28;20223;-69
2021/04/05 15:06:20;;;;;;;0.70;0.67;;;22.60;99.90;;;;;;20711997;28;20258;-71
2021/04/05 15:16:28;;;;;;;6.90;1.37;;;23.20;99.90;;;;;;20728892;28;20226;-68
2021/04/05 15:26:33;;;;;;;1.40;0.87;;;21.80;99.90;;;;;;20694638;28;20603;-70
2021/04/05 15:36:37;;;;;;;6.70;1.27;;;22.90;99.90;;;;;;20733493;28;20464;-70
2021/04/05 15:46:52;;;;;;;6.93;2.07;;;21.20;99.90;;;;;;20809316;28;20525;-69
2021/04/05 15:57:02;;;;;;;5.27;2.87;;;21.40;99.90;;;;;;20774895;28;20652;-71
2021/04/05 16:07:10;;;;;;;3.53;1.90;;;21.10;99.90;;;;;;20808555;28;20320;-70
2021/04/05 16:17:22;;;;;;;5.90;3.07;;;19.20;99.90;;;;;;20809223;28;20316;-72
2021/04/05 16:27:29;;;;;;;3.50;2.50;;;19.10;99.90;;;;;;20824702;28;20268;-67
2021/04/05 16:37:36;;;;;;;7.30;1.47;;;19.30;99.90;;;;;;20821744;28;20226;-69
2021/04/05 16:47:49;;;;;;;1.50;1.40;;;18.90;99.90;;;;;;20820858;28;20200;-72
2021/04/05 16:57:55;;;;;;;3.47;0.90;;;19.10;99.90;;;;;;20818182;28;20264;-71
2021/04/05 17:08:03;;;;;;;2.57;1.57;;;18.60;99.90;;;;;;20753546;28;20647;-70
2021/04/05 17:18:10;;;;;;;2.00;1.03;;;19.10;99.90;;;;;;20737462;28;20226;-70
2021/04/05 17:28:17;;;;;;;2.13;0.60;;;18.20;99.90;;;;;;20737225;28;20233;-70
2021/04/05 17:38:23;;;;;;;8.27;1.17;;;18.50;99.90;;;;;;20756234;28;20324;-72
2021/04/05 17:48:33;;;;;;;1.73;1.63;;;18.90;99.90;;;;;;20760278;28;20297;-73
2021/04/05 17:58:52;;;;;;;4.63;1.23;;;17.90;99.90;;;;;;20735457;28;20230;-72
2021/04/05 18:09:26;;;;;;;6.03;1.07;;;17.10;99.90;;;;;;20722216;28;20234;-73
2021/04/05 18:19:41;;;;;;;1.03;0.97;;;16.90;99.90;;;;;;20757427;28;20733;-71
2021/04/05 18:29:59;;;;;;;0.40;0.40;;;16.90;99.90;;;;;;20707939;28;20207;-73
2021/04/05 18:40:12;;;;;;;2.83;1.13;;;17.20;99.90;;;;;;20717214;28;20268;-72
2021/04/05 18:50:21;;;;;;;0.83;0.83;;;17.30;99.90;;;;;;20811724;28;20236;-73
2021/04/05 19:00:28;;;;;;;0.97;0.80;;;17.30;99.90;;;;;;20810940;28;20307;-71
2021/04/05 19:10:35;;;;;;;1.53;1.27;;;17.30;99.90;;;;;;20793105;28;20256;-74
2021/04/05 19:20:42;;;;;;;1.10;0.90;;;17.10;99.90;;;;;;20810225;28;20276;-72
2021/04/05 19:31:07;;;;;;;0.53;0.40;;;17.10;99.90;;;;;;20810468;28;20719;-69
2021/04/05 19:41:38;;;;;;;0.70;0.70;;;17.00;99.90;;;;;;20810187;28;20214;-72
2021/04/05 19:52:03;;;;;;;4.67;1.63;;;16.70;99.90;;;;;;20798370;28;20365;-72
2021/04/05 20:02:22;;;;;;;0.67;0.27;;;16.60;99.90;;;;;;20809158;28;20272;-73
2021/04/05 20:12:44;;;;;;;5.83;1.10;;;16.40;99.90;;;;;;20808995;28;20206;-74
2021/04/05 20:22:52;;;;;;;1.83;1.03;;;16.30;99.90;;;;;;20808789;28;20370;-72
2021/04/05 20:33:17;;;;;;;1.57;0.97;;;16.30;99.90;;;;;;20808073;28;20281;-71
2021/04/05 20:43:24;;;;;;;0.93;0.80;;;16.00;99.90;;;;;;20807793;28;20617;-73
2021/04/05 20:53:37;;;;;;;0.63;0.43;;;15.50;99.90;;;;;;20807704;28;20254;-74
2021/04/05 21:03:44;;;;;;;0.80;0.70;;;14.70;99.90;;;;;;20810220;28;20380;-73
2021/04/05 21:14:00;;;;;;;0.80;0.80;;;14.40;99.90;;;;;;20822210;28;20245;-73
2021/04/05 21:24:07;;;;;;;1.30;1.20;;;14.40;99.90;;;;;;20821130;28;20305;-71
2021/04/05 21:34:19;;;;;;;0.43;0.43;;;14.00;99.90;;;;;;20819401;28;20754;-71
2021/04/05 21:44:24;;;;;;;0.43;0.43;;;13.90;99.90;;;;;;20746839;28;20286;-72
2021/04/05 21:54:33;;;;;;;0.50;0.50;;;13.50;99.90;;;;;;20738446;28;20321;-74
2021/04/05 22:04:37;;;;;;;1.07;0.83;;;13.20;99.90;;;;;;20737497;28;20314;-72
2021/04/05 22:14:41;;;;;;;3.93;1.23;;;12.90;99.90;;;;;;20736261;28;20245;-73
2021/04/05 22:24:45;;;;;;;0.80;0.80;;;12.60;99.90;;;;;;20735280;28;20199;-73
2021/04/05 22:34:53;;;;;;;1.17;0.83;;;12.60;99.90;;;;;;20734449;28;20281;-72
2021/04/05 22:44:57;;;;;;;0.30;0.30;;;12.50;99.90;;;;;;20812705;28;20407;-73
2021/04/05 22:55:01;;;;;;;0.43;0.43;;;12.80;99.90;;;;;;20817567;28;20237;-69
2021/04/05 23:05:06;;;;;;;0.87;0.87;;;12.70;99.90;;;;;;20817472;28;20778;-71
2021/04/05 23:15:13;;;;;;;0.20;0.20;;;12.20;99.90;;;;;;20816635;28;20820;-71
2021/04/05 23:25:17;;;;;;;0.90;0.90;;;12.30;99.90;;;;;;20798844;28;20534;-69
2021/04/05 23:35:24;;;;;;;1.00;0.57;;;12.00;99.90;;;;;;20815054;28;20641;-70
2021/04/05 23:45:35;;;;;;;0.77;0.77;;;11.60;99.90;;;;;;20797513;28;20212;-70
2021/04/05 23:55:41;;;;;;;0.60;0.33;;;11.70;99.90;;;;;;20814585;28;20308;-69
